sensor_id;sensor_type;location;lat;lon;timestamp;P1;durP1;ratioP1;P2;durP2;ratioP2
4837;SDS011;2433;48.768;9.154;2023-08-20T00:01:20;8.60;;;7.70;;
4837;SDS011;2433;48.768;9.154;2023-08-20T00:03:48;9.37;;;8.47;;
4837;SDS011;2433;48.768;9.154;2023-08-20T00:06:15;8.80;;;8.00;;
4837;SDS011;2433;48.768;9.154;2023-08-20T00:08:41;9.93;;;8.13;;
4837;SDS011;2433;48.768;9.154;2023-08-20T00:11:06;9.00;;;8.10;;
4837;SDS011;2433;48.768;9.154;2023-08-20T00:13:32;9.63;;;8.07;;
4837;SDS011;2433;48.768;9.154;2023-08-20T00:15:57;8.23;;;7.20;;
4837;SDS011;2433;48.768;9.154;2023-08-20T00:18:23;8.87;;;8.07;;
4837;SDS011;2433;48.768;9.154;2023-08-20T00:20:49;9.43;;;8.17;;
4837;SDS011;2433;48.768;9.154;2023-08-20T00:23:14;7.20;;;6.50;;
4837;SDS011;2433;48.768;9.154;2023-08-20T00:25:41;9.30;;;8.23;;
4837;SDS011;2433;48.768;9.154;2023-08-20T00:28:06;8.67;;;7.57;;
4837;SDS011;2433;48.768;9.154;2023-08-20T00:30:32;9.00;;;8.10;;
4837;SDS011;2433;48.768;9.154;2023-08-20T00:32:58;9.33;;;7.67;;
4837;SDS011;2433;48.768;9.154;2023-08-20T00:35:23;11.03;;;8.23;;
4837;SDS011;2433;48.768;9.154;2023-08-20T00:37:49;7.90;;;7.20;;
4837;SDS011;2433;48.768;9.154;2023-08-20T00:40:15;10.20;;;7.93;;
4837;SDS011;2433;48.768;9.154;2023-08-20T00:42:41;8.33;;;7.63;;
4837;SDS011;2433;48.768;9.154;2023-08-20T00:45:07;8.83;;;7.10;;
4837;SDS011;2433;48.768;9.154;2023-08-20T00:47:33;8.97;;;8.17;;
4837;SDS011;2433;48.768;9.154;2023-08-20T00:49:58;8.80;;;7.90;;
4837;SDS011;2433;48.768;9.154;2023-08-20T00:52:24;8.40;;;7.60;;
4837;SDS011;2433;48.768;9.154;2023-08-20T00:54:50;10.57;;;7.53;;
4837;SDS011;2433;48.768;9.154;2023-08-20T00:57:17;9.13;;;8.23;;
4837;SDS011;2433;48.768;9.154;2023-08-20T00:59:44;7.77;;;7.03;;
4837;SDS011;2433;48.768;9.154;2023-08-20T01:02:13;8.53;;;7.73;;
4837;SDS011;2433;48.768;9.154;2023-08-20T01:04:39;8.27;;;7.53;;
4837;SDS011;2433;48.768;9.154;2023-08-20T01:12:16;13.13;;;8.97;;
4837;SDS011;2433;48.768;9.154;2023-08-20T01:14:42;9.30;;;8.40;;
4837;SDS011;2433;48.768;9.154;2023-08-20T01:17:08;9.03;;;8.07;;
4837;SDS011;2433;48.768;9.154;2023-08-20T01:19:33;10.20;;;8.10;;
4837;SDS011;2433;48.768;9.154;2023-08-20T01:27:28;8.60;;;7.90;;
4837;SDS011;2433;48.768;9.154;2023-08-20T01:30:10;8.80;;;7.97;;
4837;SDS011;2433;48.768;9.154;2023-08-20T01:32:36;9.57;;;8.57;;
4837;SDS011;2433;48.768;9.154;2023-08-20T01:35:03;8.40;;;7.67;;
4837;SDS011;2433;48.768;9.154;2023-08-20T01:37:31;9.43;;;8.47;;
4837;SDS011;2433;48.768;9.154;2023-08-20T01:39:56;10.97;;;9.87;;
4837;SDS011;2433;48.768;9.154;2023-08-20T01:42:22;10.13;;;9.13;;
4837;SDS011;2433;48.768;9.154;2023-08-20T01:44:47;8.10;;;7.40;;
4837;SDS011;2433;48.768;9.154;2023-08-20T01:47:13;8.43;;;7.70;;
4837;SDS011;2433;48.768;9.154;2023-08-20T01:49:38;9.67;;;8.77;;
4837;SDS011;2433;48.768;9.154;2023-08-20T01:52:04;10.17;;;9.17;;
4837;SDS011;2433;48.768;9.154;2023-08-20T01:54:30;9.23;;;8.27;;
4837;SDS011;2433;48.768;9.154;2023-08-20T01:56:56;9.60;;;8.53;;
4837;SDS011;2433;48.768;9.154;2023-08-20T01:59:21;9.47;;;7.97;;
4837;SDS011;2433;48.768;9.154;2023-08-20T02:01:47;8.60;;;7.40;;
4837;SDS011;2433;48.768;9.154;2023-08-20T02:04:12;9.80;;;8.70;;
4837;SDS011;2433;48.768;9.154;2023-08-20T02:06:38;9.47;;;8.57;;
4837;SDS011;2433;48.768;9.154;2023-08-20T02:09:03;10.23;;;8.20;;
4837;SDS011;2433;48.768;9.154;2023-08-20T02:11:29;9.33;;;8.43;;
4837;SDS011;2433;48.768;9.154;2023-08-20T02:13:56;9.90;;;8.57;;
4837;SDS011;2433;48.768;9.154;2023-08-20T02:16:22;9.50;;;8.43;;
4837;SDS011;2433;48.768;9.154;2023-08-20T02:18:47;8.00;;;7.30;;
4837;SDS011;2433;48.768;9.154;2023-08-20T02:21:14;10.37;;;8.80;;
4837;SDS011;2433;48.768;9.154;2023-08-20T02:23:40;10.27;;;9.17;;
4837;SDS011;2433;48.768;9.154;2023-08-20T02:26:05;10.10;;;9.10;;
4837;SDS011;2433;48.768;9.154;2023-08-20T02:28:32;8.73;;;7.87;;
4837;SDS011;2433;48.768;9.154;2023-08-20T02:30:57;8.60;;;7.80;;
4837;SDS011;2433;48.768;9.154;2023-08-20T02:33:25;9.00;;;8.10;;
4837;SDS011;2433;48.768;9.154;2023-08-20T02:35:51;9.23;;;8.20;;
4837;SDS011;2433;48.768;9.154;2023-08-20T02:38:16;8.43;;;7.63;;
4837;SDS011;2433;48.768;9.154;2023-08-20T02:40:42;11.27;;;9.03;;
4837;SDS011;2433;48.768;9.154;2023-08-20T02:43:08;10.07;;;9.17;;
4837;SDS011;2433;48.768;9.154;2023-08-20T02:45:39;9.87;;;8.97;;
4837;SDS011;2433;48.768;9.154;2023-08-20T02:48:06;9.97;;;8.97;;
4837;SDS011;2433;48.768;9.154;2023-08-20T02:50:32;10.50;;;8.93;;
4837;SDS011;2433;48.768;9.154;2023-08-20T02:52:58;11.20;;;8.13;;
4837;SDS011;2433;48.768;9.154;2023-08-20T02:55:24;10.10;;;8.80;;
4837;SDS011;2433;48.768;9.154;2023-08-20T02:57:49;9.27;;;8.37;;
4837;SDS011;2433;48.768;9.154;2023-08-20T03:00:15;9.57;;;8.57;;
4837;SDS011;2433;48.768;9.154;2023-08-20T03:02:41;10.80;;;9.70;;
4837;SDS011;2433;48.768;9.154;2023-08-20T03:05:08;9.23;;;8.33;;
4837;SDS011;2433;48.768;9.154;2023-08-20T03:07:34;9.77;;;8.83;;
4837;SDS011;2433;48.768;9.154;2023-08-20T03:10:00;9.23;;;8.07;;
4837;SDS011;2433;48.768;9.154;2023-08-20T03:12:25;9.97;;;8.30;;
4837;SDS011;2433;48.768;9.154;2023-08-20T03:14:51;10.20;;;9.20;;
4837;SDS011;2433;48.768;9.154;2023-08-20T03:17:16;10.37;;;8.93;;
4837;SDS011;2433;48.768;9.154;2023-08-20T03:19:55;10.30;;;9.20;;
4837;SDS011;2433;48.768;9.154;2023-08-20T03:22:22;9.60;;;8.60;;
4837;SDS011;2433;48.768;9.154;2023-08-20T03:24:48;8.90;;;8.10;;
4837;SDS011;2433;48.768;9.154;2023-08-20T03:27:14;10.07;;;8.87;;
4837;SDS011;2433;48.768;9.154;2023-08-20T03:29:39;9.53;;;8.60;;
4837;SDS011;2433;48.768;9.154;2023-08-20T03:32:05;10.27;;;9.27;;
4837;SDS011;2433;48.768;9.154;2023-08-20T03:34:31;10.13;;;8.80;;
4837;SDS011;2433;48.768;9.154;2023-08-20T03:36:56;10.23;;;9.23;;
4837;SDS011;2433;48.768;9.154;2023-08-20T03:39:22;9.23;;;8.33;;
4837;SDS011;2433;48.768;9.154;2023-08-20T03:41:47;13.23;;;10.10;;
4837;SDS011;2433;48.768;9.154;2023-08-20T03:44:14;9.97;;;8.23;;
4837;SDS011;2433;48.768;9.154;2023-08-20T03:46:39;11.27;;;9.07;;
4837;SDS011;2433;48.768;9.154;2023-08-20T03:49:05;9.93;;;8.87;;
4837;SDS011;2433;48.768;9.154;2023-08-20T03:51:30;10.47;;;9.33;;
4837;SDS011;2433;48.768;9.154;2023-08-20T03:53:56;10.73;;;9.20;;
4837;SDS011;2433;48.768;9.154;2023-08-20T03:56:21;10.77;;;9.10;;
4837;SDS011;2433;48.768;9.154;2023-08-20T03:58:47;8.73;;;7.63;;
4837;SDS011;2433;48.768;9.154;2023-08-20T04:01:12;8.60;;;7.80;;
4837;SDS011;2433;48.768;9.154;2023-08-20T04:03:38;8.80;;;8.00;;
4837;SDS011;2433;48.768;9.154;2023-08-20T04:06:03;9.03;;;8.07;;
4837;SDS011;2433;48.768;9.154;2023-08-20T04:08:29;10.43;;;9.30;;
4837;SDS011;2433;48.768;9.154;2023-08-20T04:10:55;9.83;;;8.93;;
4837;SDS011;2433;48.768;9.154;2023-08-20T04:13:20;10.67;;;8.90;;
4837;SDS011;2433;48.768;9.154;2023-08-20T04:15:46;11.07;;;9.30;;
4837;SDS011;2433;48.768;9.154;2023-08-20T04:18:12;9.70;;;8.00;;
4837;SDS011;2433;48.768;9.154;2023-08-20T04:20:37;12.90;;;8.80;;
4837;SDS011;2433;48.768;9.154;2023-08-20T04:23:03;9.77;;;8.87;;
4837;SDS011;2433;48.768;9.154;2023-08-20T04:25:29;9.20;;;8.33;;
4837;SDS011;2433;48.768;9.154;2023-08-20T04:27:55;10.83;;;9.33;;
4837;SDS011;2433;48.768;9.154;2023-08-20T04:30:21;10.03;;;9.07;;
4837;SDS011;2433;48.768;9.154;2023-08-20T04:32:46;9.37;;;8.47;;
4837;SDS011;2433;48.768;9.154;2023-08-20T04:35:12;9.43;;;8.50;;
4837;SDS011;2433;48.768;9.154;2023-08-20T04:37:38;11.17;;;9.13;;
4837;SDS011;2433;48.768;9.154;2023-08-20T04:40:04;10.23;;;9.00;;
4837;SDS011;2433;48.768;9.154;2023-08-20T04:42:31;10.60;;;9.03;;
4837;SDS011;2433;48.768;9.154;2023-08-20T04:44:57;10.83;;;9.73;;
4837;SDS011;2433;48.768;9.154;2023-08-20T04:47:23;8.93;;;8.13;;
4837;SDS011;2433;48.768;9.154;2023-08-20T04:49:49;10.23;;;9.33;;
4837;SDS011;2433;48.768;9.154;2023-08-20T04:52:16;11.43;;;10.33;;
4837;SDS011;2433;48.768;9.154;2023-08-20T04:54:41;9.53;;;8.50;;
4837;SDS011;2433;48.768;9.154;2023-08-20T04:57:07;12.70;;;9.10;;
4837;SDS011;2433;48.768;9.154;2023-08-20T04:59:33;10.77;;;9.10;;
4837;SDS011;2433;48.768;9.154;2023-08-20T05:02:17;9.87;;;8.67;;
4837;SDS011;2433;48.768;9.154;2023-08-20T05:04:48;10.50;;;9.60;;
4837;SDS011;2433;48.768;9.154;2023-08-20T05:07:14;11.97;;;9.30;;
4837;SDS011;2433;48.768;9.154;2023-08-20T05:09:40;9.63;;;8.73;;
4837;SDS011;2433;48.768;9.154;2023-08-20T05:12:06;13.50;;;9.90;;
4837;SDS011;2433;48.768;9.154;2023-08-20T05:14:33;10.90;;;9.67;;
4837;SDS011;2433;48.768;9.154;2023-08-20T05:16:58;9.30;;;8.40;;
4837;SDS011;2433;48.768;9.154;2023-08-20T05:19:24;11.90;;;10.80;;
4837;SDS011;2433;48.768;9.154;2023-08-20T05:21:50;10.00;;;8.90;;
4837;SDS011;2433;48.768;9.154;2023-08-20T05:24:15;15.73;;;9.00;;
4837;SDS011;2433;48.768;9.154;2023-08-20T05:26:41;10.90;;;9.80;;
4837;SDS011;2433;48.768;9.154;2023-08-20T05:29:06;9.70;;;8.70;;
4837;SDS011;2433;48.768;9.154;2023-08-20T05:31:32;10.57;;;9.57;;
4837;SDS011;2433;48.768;9.154;2023-08-20T05:33:57;10.83;;;9.87;;
4837;SDS011;2433;48.768;9.154;2023-08-20T05:36:23;10.20;;;9.20;;
4837;SDS011;2433;48.768;9.154;2023-08-20T05:38:49;10.90;;;9.80;;
4837;SDS011;2433;48.768;9.154;2023-08-20T05:41:14;10.90;;;9.80;;
4837;SDS011;2433;48.768;9.154;2023-08-20T05:43:40;11.43;;;10.40;;
4837;SDS011;2433;48.768;9.154;2023-08-20T05:46:06;10.20;;;9.17;;
4837;SDS011;2433;48.768;9.154;2023-08-20T05:48:31;11.10;;;10.03;;
4837;SDS011;2433;48.768;9.154;2023-08-20T05:50:57;12.03;;;10.73;;
4837;SDS011;2433;48.768;9.154;2023-08-20T05:53:22;11.07;;;9.97;;
4837;SDS011;2433;48.768;9.154;2023-08-20T05:55:48;11.07;;;9.97;;
4837;SDS011;2433;48.768;9.154;2023-08-20T05:58:14;11.60;;;9.93;;
4837;SDS011;2433;48.768;9.154;2023-08-20T06:00:40;10.67;;;9.67;;
4837;SDS011;2433;48.768;9.154;2023-08-20T06:03:06;12.87;;;10.27;;
4837;SDS011;2433;48.768;9.154;2023-08-20T06:05:34;10.60;;;9.60;;
4837;SDS011;2433;48.768;9.154;2023-08-20T06:08:00;9.50;;;8.60;;
4837;SDS011;2433;48.768;9.154;2023-08-20T06:10:25;11.10;;;10.13;;
4837;SDS011;2433;48.768;9.154;2023-08-20T06:12:51;11.60;;;8.93;;
4837;SDS011;2433;48.768;9.154;2023-08-20T06:15:17;9.43;;;8.53;;
4837;SDS011;2433;48.768;9.154;2023-08-20T06:17:43;12.10;;;10.00;;
4837;SDS011;2433;48.768;9.154;2023-08-20T06:20:08;10.67;;;9.60;;
4837;SDS011;2433;48.768;9.154;2023-08-20T06:22:39;10.00;;;9.00;;
4837;SDS011;2433;48.768;9.154;2023-08-20T06:25:05;10.17;;;9.27;;
4837;SDS011;2433;48.768;9.154;2023-08-20T06:27:31;10.13;;;9.13;;
4837;SDS011;2433;48.768;9.154;2023-08-20T06:29:56;10.40;;;9.50;;
4837;SDS011;2433;48.768;9.154;2023-08-20T06:32:25;10.60;;;9.60;;
4837;SDS011;2433;48.768;9.154;2023-08-20T06:34:51;11.73;;;10.53;;
4837;SDS011;2433;48.768;9.154;2023-08-20T06:37:16;10.87;;;9.87;;
4837;SDS011;2433;48.768;9.154;2023-08-20T06:39:42;11.63;;;10.53;;
4837;SDS011;2433;48.768;9.154;2023-08-20T06:42:07;11.10;;;10.10;;
4837;SDS011;2433;48.768;9.154;2023-08-20T06:44:33;10.03;;;9.03;;
4837;SDS011;2433;48.768;9.154;2023-08-20T06:47:00;11.80;;;10.70;;
4837;SDS011;2433;48.768;9.154;2023-08-20T06:49:26;11.23;;;10.13;;
4837;SDS011;2433;48.768;9.154;2023-08-20T06:51:52;11.37;;;10.27;;
4837;SDS011;2433;48.768;9.154;2023-08-20T06:54:17;10.30;;;9.23;;
4837;SDS011;2433;48.768;9.154;2023-08-20T06:56:43;9.80;;;8.80;;
4837;SDS011;2433;48.768;9.154;2023-08-20T06:59:09;13.30;;;9.47;;
4837;SDS011;2433;48.768;9.154;2023-08-20T07:01:35;10.37;;;9.33;;
4837;SDS011;2433;48.768;9.154;2023-08-20T07:04:01;11.00;;;10.00;;
4837;SDS011;2433;48.768;9.154;2023-08-20T07:06:27;11.93;;;10.67;;
4837;SDS011;2433;48.768;9.154;2023-08-20T07:08:53;10.07;;;9.20;;
4837;SDS011;2433;48.768;9.154;2023-08-20T07:11:18;12.17;;;10.93;;
4837;SDS011;2433;48.768;9.154;2023-08-20T07:13:44;10.53;;;9.33;;
4837;SDS011;2433;48.768;9.154;2023-08-20T07:16:09;11.03;;;10.03;;
4837;SDS011;2433;48.768;9.154;2023-08-20T07:18:35;11.47;;;10.37;;
4837;SDS011;2433;48.768;9.154;2023-08-20T07:21:00;11.17;;;10.07;;
4837;SDS011;2433;48.768;9.154;2023-08-20T07:23:26;10.50;;;9.50;;
4837;SDS011;2433;48.768;9.154;2023-08-20T07:25:59;10.10;;;9.10;;
4837;SDS011;2433;48.768;9.154;2023-08-20T07:28:29;10.83;;;9.57;;
4837;SDS011;2433;48.768;9.154;2023-08-20T07:31:15;10.90;;;9.80;;
4837;SDS011;2433;48.768;9.154;2023-08-20T07:33:40;9.83;;;8.93;;
4837;SDS011;2433;48.768;9.154;2023-08-20T07:36:06;9.30;;;8.50;;
4837;SDS011;2433;48.768;9.154;2023-08-20T07:38:31;10.50;;;9.53;;
4837;SDS011;2433;48.768;9.154;2023-08-20T07:40:57;10.40;;;9.50;;
4837;SDS011;2433;48.768;9.154;2023-08-20T07:43:23;10.93;;;9.93;;
4837;SDS011;2433;48.768;9.154;2023-08-20T07:45:50;11.97;;;10.57;;
4837;SDS011;2433;48.768;9.154;2023-08-20T07:48:15;10.73;;;9.63;;
4837;SDS011;2433;48.768;9.154;2023-08-20T07:50:41;10.70;;;9.80;;
4837;SDS011;2433;48.768;9.154;2023-08-20T07:53:06;11.00;;;9.97;;
4837;SDS011;2433;48.768;9.154;2023-08-20T07:55:32;10.00;;;9.10;;
4837;SDS011;2433;48.768;9.154;2023-08-20T07:57:57;10.80;;;9.80;;
4837;SDS011;2433;48.768;9.154;2023-08-20T08:00:23;13.30;;;10.00;;
4837;SDS011;2433;48.768;9.154;2023-08-20T08:02:48;10.30;;;9.30;;
4837;SDS011;2433;48.768;9.154;2023-08-20T08:05:14;9.37;;;8.50;;
4837;SDS011;2433;48.768;9.154;2023-08-20T08:07:40;10.50;;;9.50;;
4837;SDS011;2433;48.768;9.154;2023-08-20T08:10:05;10.90;;;9.10;;
4837;SDS011;2433;48.768;9.154;2023-08-20T08:12:31;10.27;;;9.27;;
4837;SDS011;2433;48.768;9.154;2023-08-20T08:14:57;12.23;;;9.73;;
4837;SDS011;2433;48.768;9.154;2023-08-20T08:17:22;10.37;;;9.33;;
4837;SDS011;2433;48.768;9.154;2023-08-20T08:19:48;10.90;;;9.83;;
4837;SDS011;2433;48.768;9.154;2023-08-20T08:22:14;10.43;;;9.53;;
4837;SDS011;2433;48.768;9.154;2023-08-20T08:24:39;10.30;;;9.40;;
4837;SDS011;2433;48.768;9.154;2023-08-20T08:27:07;11.70;;;10.60;;
4837;SDS011;2433;48.768;9.154;2023-08-20T08:29:35;10.87;;;9.87;;
4837;SDS011;2433;48.768;9.154;2023-08-20T08:32:01;9.57;;;8.77;;
4837;SDS011;2433;48.768;9.154;2023-08-20T08:34:26;11.13;;;9.07;;
4837;SDS011;2433;48.768;9.154;2023-08-20T08:36:52;12.20;;;11.00;;
4837;SDS011;2433;48.768;9.154;2023-08-20T08:39:18;10.87;;;9.60;;
4837;SDS011;2433;48.768;9.154;2023-08-20T08:41:43;11.10;;;10.07;;
4837;SDS011;2433;48.768;9.154;2023-08-20T08:44:11;13.57;;;10.40;;
4837;SDS011;2433;48.768;9.154;2023-08-20T08:46:38;11.03;;;9.93;;
4837;SDS011;2433;48.768;9.154;2023-08-20T08:49:05;12.60;;;9.73;;
4837;SDS011;2433;48.768;9.154;2023-08-20T08:51:31;11.10;;;10.03;;
4837;SDS011;2433;48.768;9.154;2023-08-20T08:53:57;10.00;;;9.10;;
4837;SDS011;2433;48.768;9.154;2023-08-20T08:56:22;10.17;;;9.17;;
4837;SDS011;2433;48.768;9.154;2023-08-20T08:58:48;10.73;;;9.30;;
4837;SDS011;2433;48.768;9.154;2023-08-20T09:01:14;14.50;;;9.50;;
4837;SDS011;2433;48.768;9.154;2023-08-20T09:03:39;10.43;;;9.43;;
4837;SDS011;2433;48.768;9.154;2023-08-20T09:06:09;10.80;;;9.70;;
4837;SDS011;2433;48.768;9.154;2023-08-20T09:08:35;12.40;;;9.40;;
4837;SDS011;2433;48.768;9.154;2023-08-20T09:11:01;9.90;;;8.90;;
4837;SDS011;2433;48.768;9.154;2023-08-20T09:13:34;11.03;;;9.93;;
4837;SDS011;2433;48.768;9.154;2023-08-20T09:16:10;12.10;;;9.30;;
4837;SDS011;2433;48.768;9.154;2023-08-20T09:18:46;10.17;;;9.23;;
4837;SDS011;2433;48.768;9.154;2023-08-20T09:21:13;12.50;;;9.13;;
4837;SDS011;2433;48.768;9.154;2023-08-20T09:23:39;10.30;;;9.13;;
4837;SDS011;2433;48.768;9.154;2023-08-20T09:26:05;10.60;;;9.50;;
4837;SDS011;2433;48.768;9.154;2023-08-20T09:28:42;12.57;;;11.27;;
4837;SDS011;2433;48.768;9.154;2023-08-20T09:31:09;12.00;;;10.20;;
4837;SDS011;2433;48.768;9.154;2023-08-20T09:33:35;10.83;;;9.73;;
4837;SDS011;2433;48.768;9.154;2023-08-20T09:36:02;9.50;;;8.70;;
4837;SDS011;2433;48.768;9.154;2023-08-20T09:38:28;12.33;;;11.10;;
4837;SDS011;2433;48.768;9.154;2023-08-20T09:40:54;12.20;;;11.00;;
4837;SDS011;2433;48.768;9.154;2023-08-20T09:43:24;9.40;;;8.50;;
4837;SDS011;2433;48.768;9.154;2023-08-20T09:45:54;10.93;;;9.93;;
4837;SDS011;2433;48.768;9.154;2023-08-20T09:48:20;10.10;;;9.23;;
4837;SDS011;2433;48.768;9.154;2023-08-20T09:50:51;9.93;;;8.93;;
4837;SDS011;2433;48.768;9.154;2023-08-20T09:53:27;9.47;;;8.53;;
4837;SDS011;2433;48.768;9.154;2023-08-20T09:56:15;10.00;;;9.10;;
4837;SDS011;2433;48.768;9.154;2023-08-20T09:58:44;10.27;;;9.27;;
4837;SDS011;2433;48.768;9.154;2023-08-20T10:01:11;9.40;;;8.47;;
4837;SDS011;2433;48.768;9.154;2023-08-20T10:03:37;11.57;;;10.37;;
4837;SDS011;2433;48.768;9.154;2023-08-20T10:06:03;11.87;;;10.77;;
4837;SDS011;2433;48.768;9.154;2023-08-20T10:08:29;11.07;;;9.97;;
4837;SDS011;2433;48.768;9.154;2023-08-20T10:10:55;9.70;;;8.80;;
4837;SDS011;2433;48.768;9.154;2023-08-20T10:13:21;10.40;;;9.50;;
4837;SDS011;2433;48.768;9.154;2023-08-20T10:15:46;10.23;;;9.27;;
4837;SDS011;2433;48.768;9.154;2023-08-20T10:18:12;10.50;;;9.40;;
4837;SDS011;2433;48.768;9.154;2023-08-20T10:20:38;9.67;;;8.87;;
4837;SDS011;2433;48.768;9.154;2023-08-20T10:23:05;11.17;;;9.97;;
4837;SDS011;2433;48.768;9.154;2023-08-20T10:25:31;9.50;;;8.60;;
4837;SDS011;2433;48.768;9.154;2023-08-20T10:28:21;12.80;;;9.27;;
4837;SDS011;2433;48.768;9.154;2023-08-20T10:31:11;9.10;;;8.30;;
4837;SDS011;2433;48.768;9.154;2023-08-20T10:33:48;9.60;;;8.63;;
4837;SDS011;2433;48.768;9.154;2023-08-20T10:36:20;9.63;;;8.80;;
4837;SDS011;2433;48.768;9.154;2023-08-20T10:38:56;9.10;;;8.30;;
4837;SDS011;2433;48.768;9.154;2023-08-20T10:41:26;9.27;;;8.57;;
4837;SDS011;2433;48.768;9.154;2023-08-20T10:43:53;11.00;;;8.87;;
4837;SDS011;2433;48.768;9.154;2023-08-20T10:46:23;9.87;;;8.97;;
4837;SDS011;2433;48.768;9.154;2023-08-20T10:48:55;9.00;;;8.10;;
4837;SDS011;2433;48.768;9.154;2023-08-20T10:51:29;9.10;;;8.20;;
4837;SDS011;2433;48.768;9.154;2023-08-20T10:56:37;9.40;;;8.70;;
4837;SDS011;2433;48.768;9.154;2023-08-20T10:59:16;8.30;;;7.60;;
4837;SDS011;2433;48.768;9.154;2023-08-20T11:01:44;9.30;;;8.50;;
4837;SDS011;2433;48.768;9.154;2023-08-20T11:04:11;9.50;;;8.70;;
4837;SDS011;2433;48.768;9.154;2023-08-20T11:06:37;8.70;;;7.90;;
4837;SDS011;2433;48.768;9.154;2023-08-20T11:09:02;9.43;;;8.60;;
4837;SDS011;2433;48.768;9.154;2023-08-20T11:11:29;8.93;;;8.23;;
4837;SDS011;2433;48.768;9.154;2023-08-20T11:13:55;10.20;;;8.30;;
4837;SDS011;2433;48.768;9.154;2023-08-20T11:16:20;8.27;;;7.47;;
4837;SDS011;2433;48.768;9.154;2023-08-20T11:18:46;9.57;;;8.60;;
4837;SDS011;2433;48.768;9.154;2023-08-20T11:21:12;7.70;;;7.10;;
4837;SDS011;2433;48.768;9.154;2023-08-20T11:23:38;8.47;;;7.77;;
4837;SDS011;2433;48.768;9.154;2023-08-20T11:26:07;8.90;;;8.20;;
4837;SDS011;2433;48.768;9.154;2023-08-20T11:28:33;8.83;;;8.03;;
4837;SDS011;2433;48.768;9.154;2023-08-20T11:30:58;8.10;;;7.30;;
4837;SDS011;2433;48.768;9.154;2023-08-20T11:33:26;9.60;;;8.70;;
4837;SDS011;2433;48.768;9.154;2023-08-20T11:35:52;8.60;;;7.90;;
4837;SDS011;2433;48.768;9.154;2023-08-20T11:38:19;8.60;;;7.80;;
4837;SDS011;2433;48.768;9.154;2023-08-20T11:40:45;8.00;;;7.30;;
4837;SDS011;2433;48.768;9.154;2023-08-20T11:43:11;8.00;;;7.20;;
4837;SDS011;2433;48.768;9.154;2023-08-20T11:45:44;8.83;;;8.03;;
4837;SDS011;2433;48.768;9.154;2023-08-20T11:48:10;8.90;;;8.20;;
4837;SDS011;2433;48.768;9.154;2023-08-20T11:50:35;7.70;;;7.10;;
4837;SDS011;2433;48.768;9.154;2023-08-20T11:53:03;8.30;;;7.60;;
4837;SDS011;2433;48.768;9.154;2023-08-20T11:55:29;9.03;;;8.13;;
4837;SDS011;2433;48.768;9.154;2023-08-20T11:57:55;8.40;;;7.63;;
4837;SDS011;2433;48.768;9.154;2023-08-20T12:00:27;8.63;;;7.70;;
4837;SDS011;2433;48.768;9.154;2023-08-20T12:02:55;7.40;;;6.60;;
4837;SDS011;2433;48.768;9.154;2023-08-20T12:05:30;7.50;;;6.40;;
4837;SDS011;2433;48.768;9.154;2023-08-20T12:10:26;8.00;;;7.30;;
4837;SDS011;2433;48.768;9.154;2023-08-20T12:12:53;9.20;;;7.87;;
4837;SDS011;2433;48.768;9.154;2023-08-20T12:15:19;9.13;;;8.30;;
4837;SDS011;2433;48.768;9.154;2023-08-20T12:17:55;7.80;;;7.20;;
4837;SDS011;2433;48.768;9.154;2023-08-20T12:20:30;8.47;;;7.77;;
4837;SDS011;2433;48.768;9.154;2023-08-20T12:23:03;9.40;;;7.43;;
4837;SDS011;2433;48.768;9.154;2023-08-20T12:25:31;8.43;;;7.60;;
4837;SDS011;2433;48.768;9.154;2023-08-20T12:27:59;7.47;;;6.80;;
4837;SDS011;2433;48.768;9.154;2023-08-20T12:30:25;7.83;;;6.93;;
4837;SDS011;2433;48.768;9.154;2023-08-20T12:32:51;7.97;;;7.27;;
4837;SDS011;2433;48.768;9.154;2023-08-20T12:35:17;7.90;;;7.20;;
4837;SDS011;2433;48.768;9.154;2023-08-20T12:37:43;8.00;;;7.17;;
4837;SDS011;2433;48.768;9.154;2023-08-20T12:40:08;7.00;;;6.50;;
4837;SDS011;2433;48.768;9.154;2023-08-20T12:42:36;7.70;;;7.00;;
4837;SDS011;2433;48.768;9.154;2023-08-20T12:45:04;7.63;;;6.93;;
4837;SDS011;2433;48.768;9.154;2023-08-20T12:47:31;7.60;;;6.87;;
4837;SDS011;2433;48.768;9.154;2023-08-20T12:49:57;8.00;;;7.30;;
4837;SDS011;2433;48.768;9.154;2023-08-20T12:52:29;8.10;;;6.90;;
4837;SDS011;2433;48.768;9.154;2023-08-20T12:54:56;7.67;;;6.97;;
4837;SDS011;2433;48.768;9.154;2023-08-20T12:57:21;8.13;;;7.40;;
4837;SDS011;2433;48.768;9.154;2023-08-20T12:59:47;7.63;;;6.90;;
4837;SDS011;2433;48.768;9.154;2023-08-20T13:02:13;8.70;;;7.90;;
4837;SDS011;2433;48.768;9.154;2023-08-20T13:04:39;7.93;;;7.23;;
4837;SDS011;2433;48.768;9.154;2023-08-20T13:07:06;6.80;;;6.20;;
4837;SDS011;2433;48.768;9.154;2023-08-20T13:09:32;8.00;;;7.20;;
4837;SDS011;2433;48.768;9.154;2023-08-20T13:12:00;7.73;;;7.03;;
4837;SDS011;2433;48.768;9.154;2023-08-20T13:14:27;6.10;;;5.50;;
4837;SDS011;2433;48.768;9.154;2023-08-20T13:16:54;7.77;;;6.60;;
4837;SDS011;2433;48.768;9.154;2023-08-20T13:19:21;7.40;;;6.80;;
4837;SDS011;2433;48.768;9.154;2023-08-20T13:21:47;6.63;;;6.03;;
4837;SDS011;2433;48.768;9.154;2023-08-20T13:24:12;7.37;;;6.77;;
4837;SDS011;2433;48.768;9.154;2023-08-20T13:26:38;7.20;;;6.47;;
4837;SDS011;2433;48.768;9.154;2023-08-20T13:29:06;6.63;;;6.07;;
4837;SDS011;2433;48.768;9.154;2023-08-20T13:31:32;8.20;;;7.13;;
4837;SDS011;2433;48.768;9.154;2023-08-20T13:33:57;7.63;;;7.03;;
4837;SDS011;2433;48.768;9.154;2023-08-20T13:36:23;6.53;;;5.77;;
4837;SDS011;2433;48.768;9.154;2023-08-20T13:38:49;6.93;;;6.40;;
4837;SDS011;2433;48.768;9.154;2023-08-20T13:41:14;7.37;;;6.23;;
4837;SDS011;2433;48.768;9.154;2023-08-20T13:43:40;9.23;;;7.53;;
4837;SDS011;2433;48.768;9.154;2023-08-20T13:46:06;7.83;;;6.10;;
4837;SDS011;2433;48.768;9.154;2023-08-20T13:48:31;5.40;;;4.90;;
4837;SDS011;2433;48.768;9.154;2023-08-20T13:50:57;7.53;;;6.50;;
4837;SDS011;2433;48.768;9.154;2023-08-20T13:53:22;7.47;;;6.67;;
4837;SDS011;2433;48.768;9.154;2023-08-20T13:55:48;7.40;;;6.80;;
4837;SDS011;2433;48.768;9.154;2023-08-20T13:58:14;7.10;;;6.50;;
4837;SDS011;2433;48.768;9.154;2023-08-20T14:00:40;7.80;;;7.10;;
4837;SDS011;2433;48.768;9.154;2023-08-20T14:03:05;7.50;;;6.80;;
4837;SDS011;2433;48.768;9.154;2023-08-20T14:05:31;9.00;;;7.37;;
4837;SDS011;2433;48.768;9.154;2023-08-20T14:07:57;7.10;;;6.50;;
4837;SDS011;2433;48.768;9.154;2023-08-20T14:10:23;8.03;;;7.27;;
4837;SDS011;2433;48.768;9.154;2023-08-20T14:12:48;8.50;;;7.07;;
4837;SDS011;2433;48.768;9.154;2023-08-20T14:15:14;8.93;;;7.40;;
4837;SDS011;2433;48.768;9.154;2023-08-20T14:17:40;6.60;;;6.10;;
4837;SDS011;2433;48.768;9.154;2023-08-20T14:20:06;7.10;;;6.60;;
4837;SDS011;2433;48.768;9.154;2023-08-20T14:22:33;13.33;;;7.30;;
4837;SDS011;2433;48.768;9.154;2023-08-20T14:24:59;7.40;;;6.70;;
4837;SDS011;2433;48.768;9.154;2023-08-20T14:27:25;8.13;;;7.43;;
4837;SDS011;2433;48.768;9.154;2023-08-20T14:29:50;8.27;;;7.47;;
4837;SDS011;2433;48.768;9.154;2023-08-20T14:32:16;7.47;;;6.57;;
4837;SDS011;2433;48.768;9.154;2023-08-20T14:34:41;7.40;;;6.70;;
4837;SDS011;2433;48.768;9.154;2023-08-20T14:37:07;7.23;;;6.53;;
4837;SDS011;2433;48.768;9.154;2023-08-20T14:39:35;6.60;;;5.90;;
4837;SDS011;2433;48.768;9.154;2023-08-20T14:42:01;7.07;;;6.47;;
4837;SDS011;2433;48.768;9.154;2023-08-20T14:44:27;7.30;;;6.60;;
4837;SDS011;2433;48.768;9.154;2023-08-20T14:46:53;8.10;;;7.10;;
4837;SDS011;2433;48.768;9.154;2023-08-20T14:49:18;6.63;;;5.50;;
4837;SDS011;2433;48.768;9.154;2023-08-20T14:51:44;7.00;;;5.70;;
4837;SDS011;2433;48.768;9.154;2023-08-20T14:54:10;7.50;;;6.17;;
4837;SDS011;2433;48.768;9.154;2023-08-20T14:56:35;6.90;;;6.23;;
4837;SDS011;2433;48.768;9.154;2023-08-20T14:59:01;7.43;;;6.07;;
4837;SDS011;2433;48.768;9.154;2023-08-20T15:01:29;7.13;;;6.37;;
4837;SDS011;2433;48.768;9.154;2023-08-20T15:03:54;6.40;;;5.80;;
4837;SDS011;2433;48.768;9.154;2023-08-20T15:06:20;6.77;;;6.10;;
4837;SDS011;2433;48.768;9.154;2023-08-20T15:08:47;6.97;;;6.37;;
4837;SDS011;2433;48.768;9.154;2023-08-20T15:11:13;6.63;;;6.03;;
4837;SDS011;2433;48.768;9.154;2023-08-20T15:13:39;5.83;;;5.40;;
4837;SDS011;2433;48.768;9.154;2023-08-20T15:16:05;5.90;;;5.40;;
4837;SDS011;2433;48.768;9.154;2023-08-20T15:18:31;5.90;;;5.40;;
4837;SDS011;2433;48.768;9.154;2023-08-20T15:20:57;6.63;;;5.93;;